sensor_id;sensor_type;location;lat;lon;timestamp;P1;durP1;ratioP1;P2;durP2;ratioP2
28455;SDS011;15682;56.742;38.866;2023-02-22T00:00:16;40.8;;;12.5;;
28455;SDS011;15682;56.742;38.866;2023-02-22T00:02:15;34.3;;;13.3;;
28455;SDS011;15682;56.742;38.866;2023-02-22T00:04:14;39.6;;;13.1;;
28455;SDS011;15682;56.742;38.866;2023-02-22T00:06:14;34.9;;;12.9;;
28455;SDS011;15682;56.742;38.866;2023-02-22T00:08:13;36.9;;;12.9;;
28455;SDS011;15682;56.742;38.866;2023-02-22T00:10:13;37.1;;;13.1;;
28455;SDS011;15682;56.742;38.866;2023-02-22T00:12:12;44.1;;;13.8;;
28455;SDS011;15682;56.742;38.866;2023-02-22T00:14:11;41.2;;;13.8;;
28455;SDS011;15682;56.742;38.866;2023-02-22T00:16:12;41.2;;;13.3;;
28455;SDS011;15682;56.742;38.866;2023-02-22T00:18:11;40.1;;;14.5;;
28455;SDS011;15682;56.742;38.866;2023-02-22T00:20:10;37.0;;;13.0;;
28455;SDS011;15682;56.742;38.866;2023-02-22T00:22:10;38.7;;;13.5;;
28455;SDS011;15682;56.742;38.866;2023-02-22T00:24:09;31.3;;;12.2;;
28455;SDS011;15682;56.742;38.866;2023-02-22T00:26:09;39.0;;;13.7;;
28455;SDS011;15682;56.742;38.866;2023-02-22T00:28:08;44.0;;;13.8;;
28455;SDS011;15682;56.742;38.866;2023-02-22T00:30:09;40.2;;;12.9;;
28455;SDS011;15682;56.742;38.866;2023-02-22T00:32:07;37.2;;;12.5;;
28455;SDS011;15682;56.742;38.866;2023-02-22T00:34:07;41.2;;;12.5;;
28455;SDS011;15682;56.742;38.866;2023-02-22T00:36:07;40.3;;;12.9;;
28455;SDS011;15682;56.742;38.866;2023-02-22T00:38:06;37.3;;;13.1;;
28455;SDS011;15682;56.742;38.866;2023-02-22T00:40:06;46.2;;;13.8;;
28455;SDS011;15682;56.742;38.866;2023-02-22T00:42:05;34.2;;;12.4;;
28455;SDS011;15682;56.742;38.866;2023-02-22T00:44:04;38.4;;;13.7;;
28455;SDS011;15682;56.742;38.866;2023-02-22T00:46:04;42.1;;;12.7;;
28455;SDS011;15682;56.742;38.866;2023-02-22T00:48:04;45.6;;;13.4;;
28455;SDS011;15682;56.742;38.866;2023-02-22T00:50:03;34.5;;;12.6;;
28455;SDS011;15682;56.742;38.866;2023-02-22T00:52:02;36.2;;;12.5;;
28455;SDS011;15682;56.742;38.866;2023-02-22T00:54:02;36.4;;;12.2;;
28455;SDS011;15682;56.742;38.866;2023-02-22T00:56:01;34.4;;;12.6;;
28455;SDS011;15682;56.742;38.866;2023-02-22T00:58:01;35.5;;;12.3;;
28455;SDS011;15682;56.742;38.866;2023-02-22T01:00:01;34.7;;;12.5;;
28455;SDS011;15682;56.742;38.866;2023-02-22T01:02:00;33.8;;;12.4;;
28455;SDS011;15682;56.742;38.866;2023-02-22T01:04:00;34.1;;;12.3;;
28455;SDS011;15682;56.742;38.866;2023-02-22T01:05:59;36.7;;;11.9;;
28455;SDS011;15682;56.742;38.866;2023-02-22T01:07:59;37.4;;;13.1;;
28455;SDS011;15682;56.742;38.866;2023-02-22T01:09:58;35.1;;;12.1;;
28455;SDS011;15682;56.742;38.866;2023-02-22T01:11:58;37.6;;;12.8;;
28455;SDS011;15682;56.742;38.866;2023-02-22T01:13:57;39.4;;;12.9;;
28455;SDS011;15682;56.742;38.866;2023-02-22T01:15:57;37.4;;;13.4;;
28455;SDS011;15682;56.742;38.866;2023-02-22T01:17:57;32.3;;;11.6;;
28455;SDS011;15682;56.742;38.866;2023-02-22T01:19:56;43.4;;;13.7;;
28455;SDS011;15682;56.742;38.866;2023-02-22T01:21:55;36.3;;;13.0;;
28455;SDS011;15682;56.742;38.866;2023-02-22T01:23:55;38.3;;;12.1;;
28455;SDS011;15682;56.742;38.866;2023-02-22T01:25:54;31.7;;;11.5;;
28455;SDS011;15682;56.742;38.866;2023-02-22T01:27:54;33.0;;;11.8;;
28455;SDS011;15682;56.742;38.866;2023-02-22T01:29:53;34.1;;;12.0;;
28455;SDS011;15682;56.742;38.866;2023-02-22T01:31:54;37.0;;;12.2;;
28455;SDS011;15682;56.742;38.866;2023-02-22T01:33:52;31.2;;;12.1;;
28455;SDS011;15682;56.742;38.866;2023-02-22T01:35:52;37.2;;;12.6;;
28455;SDS011;15682;56.742;38.866;2023-02-22T01:37:52;34.2;;;12.1;;
28455;SDS011;15682;56.742;38.866;2023-02-22T01:39:51;36.2;;;12.1;;
28455;SDS011;15682;56.742;38.866;2023-02-22T01:41:51;33.0;;;11.4;;
28455;SDS011;15682;56.742;38.866;2023-02-22T01:43:50;38.0;;;12.7;;
28455;SDS011;15682;56.742;38.866;2023-02-22T01:45:53;43.4;;;12.8;;
28455;SDS011;15682;56.742;38.866;2023-02-22T01:47:49;34.6;;;12.2;;
28455;SDS011;15682;56.742;38.866;2023-02-22T01:49:49;36.7;;;13.0;;
28455;SDS011;15682;56.742;38.866;2023-02-22T01:51:49;38.4;;;11.7;;
28455;SDS011;15682;56.742;38.866;2023-02-22T01:53:50;35.3;;;11.9;;
28455;SDS011;15682;56.742;38.866;2023-02-22T01:55:47;33.5;;;12.0;;
28455;SDS011;15682;56.742;38.866;2023-02-22T01:57:47;38.8;;;11.8;;
28455;SDS011;15682;56.742;38.866;2023-02-22T01:59:47;34.3;;;12.3;;
28455;SDS011;15682;56.742;38.866;2023-02-22T02:01:46;37.8;;;13.0;;
28455;SDS011;15682;56.742;38.866;2023-02-22T02:03:45;34.3;;;12.1;;
28455;SDS011;15682;56.742;38.866;2023-02-22T02:05:45;35.9;;;12.6;;
28455;SDS011;15682;56.742;38.866;2023-02-22T02:07:44;36.4;;;11.3;;
28455;SDS011;15682;56.742;38.866;2023-02-22T02:09:46;38.3;;;13.1;;
28455;SDS011;15682;56.742;38.866;2023-02-22T02:11:43;37.0;;;12.9;;
28455;SDS011;15682;56.742;38.866;2023-02-22T02:13:43;34.3;;;12.3;;
28455;SDS011;15682;56.742;38.866;2023-02-22T02:15:42;31.9;;;11.8;;
28455;SDS011;15682;56.742;38.866;2023-02-22T02:17:42;36.2;;;13.1;;
28455;SDS011;15682;56.742;38.866;2023-02-22T02:19:44;33.9;;;12.9;;
28455;SDS011;15682;56.742;38.866;2023-02-22T02:21:45;35.9;;;13.0;;
28455;SDS011;15682;56.742;38.866;2023-02-22T02:23:54;36.0;;;12.0;;
28455;SDS011;15682;56.742;38.866;2023-02-22T02:25:53;35.9;;;12.3;;
28455;SDS011;15682;56.742;38.866;2023-02-22T02:27:45;43.2;;;12.6;;
28455;SDS011;15682;56.742;38.866;2023-02-22T02:29:46;36.0;;;12.5;;
28455;SDS011;15682;56.742;38.866;2023-02-22T02:33:38;33.7;;;11.6;;
28455;SDS011;15682;56.742;38.866;2023-02-22T02:35:40;31.9;;;11.5;;
28455;SDS011;15682;56.742;38.866;2023-02-22T02:37:39;38.5;;;11.3;;
28455;SDS011;15682;56.742;38.866;2023-02-22T02:39:38;29.8;;;11.6;;
28455;SDS011;15682;56.742;38.866;2023-02-22T02:41:38;37.6;;;12.7;;
28455;SDS011;15682;56.742;38.866;2023-02-22T02:43:37;35.3;;;12.3;;
28455;SDS011;15682;56.742;38.866;2023-02-22T02:45:37;36.2;;;12.1;;
28455;SDS011;15682;56.742;38.866;2023-02-22T02:47:35;39.5;;;12.2;;
28455;SDS011;15682;56.742;38.866;2023-02-22T02:49:35;37.7;;;11.7;;
28455;SDS011;15682;56.742;38.866;2023-02-22T02:51:35;33.9;;;11.1;;
28455;SDS011;15682;56.742;38.866;2023-02-22T02:53:34;33.2;;;11.0;;
28455;SDS011;15682;56.742;38.866;2023-02-22T02:55:32;36.3;;;11.9;;
28455;SDS011;15682;56.742;38.866;2023-02-22T02:57:32;36.0;;;11.9;;
28455;SDS011;15682;56.742;38.866;2023-02-22T02:59:32;38.3;;;12.5;;
28455;SDS011;15682;56.742;38.866;2023-02-22T03:01:39;38.7;;;11.5;;
28455;SDS011;15682;56.742;38.866;2023-02-22T03:03:36;32.3;;;11.0;;
28455;SDS011;15682;56.742;38.866;2023-02-22T03:05:36;28.3;;;10.6;;
28455;SDS011;15682;56.742;38.866;2023-02-22T03:07:32;39.2;;;11.4;;
28455;SDS011;15682;56.742;38.866;2023-02-22T03:09:34;37.8;;;11.4;;
28455;SDS011;15682;56.742;38.866;2023-02-22T03:11:29;32.9;;;11.7;;
28455;SDS011;15682;56.742;38.866;2023-02-22T03:13:29;41.9;;;12.7;;
28455;SDS011;15682;56.742;38.866;2023-02-22T03:15:31;32.8;;;12.2;;
28455;SDS011;15682;56.742;38.866;2023-02-22T03:17:29;36.0;;;12.1;;
28455;SDS011;15682;56.742;38.866;2023-02-22T03:19:27;35.2;;;12.9;;
28455;SDS011;15682;56.742;38.866;2023-02-22T03:21:27;35.0;;;12.3;;
28455;SDS011;15682;56.742;38.866;2023-02-22T03:23:27;34.5;;;11.8;;
28455;SDS011;15682;56.742;38.866;2023-02-22T03:25:27;33.6;;;12.1;;
28455;SDS011;15682;56.742;38.866;2023-02-22T03:27:25;37.5;;;10.6;;
28455;SDS011;15682;56.742;38.866;2023-02-22T03:29:24;39.0;;;11.2;;
28455;SDS011;15682;56.742;38.866;2023-02-22T03:31:24;35.3;;;11.1;;
28455;SDS011;15682;56.742;38.866;2023-02-22T03:33:24;35.0;;;12.2;;
28455;SDS011;15682;56.742;38.866;2023-02-22T03:35:23;30.5;;;9.6;;
28455;SDS011;15682;56.742;38.866;2023-02-22T03:37:22;34.5;;;11.4;;
28455;SDS011;15682;56.742;38.866;2023-02-22T03:39:22;38.3;;;11.9;;
28455;SDS011;15682;56.742;38.866;2023-02-22T03:41:22;29.0;;;10.6;;
28455;SDS011;15682;56.742;38.866;2023-02-22T03:43:21;31.5;;;10.9;;
28455;SDS011;15682;56.742;38.866;2023-02-22T03:45:20;33.4;;;11.8;;
28455;SDS011;15682;56.742;38.866;2023-02-22T03:47:20;37.2;;;11.9;;
28455;SDS011;15682;56.742;38.866;2023-02-22T03:49:22;28.9;;;10.7;;
28455;SDS011;15682;56.742;38.866;2023-02-22T03:51:18;32.1;;;11.6;;
28455;SDS011;15682;56.742;38.866;2023-02-22T03:53:18;26.9;;;9.9;;
28455;SDS011;15682;56.742;38.866;2023-02-22T03:55:17;30.0;;;11.3;;
28455;SDS011;15682;56.742;38.866;2023-02-22T03:57:19;32.7;;;11.3;;
28455;SDS011;15682;56.742;38.866;2023-02-22T03:59:16;32.2;;;10.5;;
28455;SDS011;15682;56.742;38.866;2023-02-22T04:01:16;34.4;;;11.2;;
28455;SDS011;15682;56.742;38.866;2023-02-22T04:03:15;36.5;;;10.6;;
28455;SDS011;15682;56.742;38.866;2023-02-22T04:05:15;26.6;;;10.6;;
28455;SDS011;15682;56.742;38.866;2023-02-22T04:07:15;34.9;;;11.3;;
28455;SDS011;15682;56.742;38.866;2023-02-22T04:09:14;30.4;;;11.1;;
28455;SDS011;15682;56.742;38.866;2023-02-22T04:11:13;25.9;;;10.1;;
28455;SDS011;15682;56.742;38.866;2023-02-22T04:13:13;35.5;;;11.1;;
28455;SDS011;15682;56.742;38.866;2023-02-22T04:15:13;32.0;;;11.8;;
28455;SDS011;15682;56.742;38.866;2023-02-22T04:17:12;35.3;;;12.1;;
28455;SDS011;15682;56.742;38.866;2023-02-22T04:19:11;33.7;;;11.8;;
28455;SDS011;15682;56.742;38.866;2023-02-22T04:21:11;32.8;;;11.8;;
28455;SDS011;15682;56.742;38.866;2023-02-22T04:23:10;38.2;;;12.0;;
28455;SDS011;15682;56.742;38.866;2023-02-22T04:25:10;33.3;;;12.2;;
28455;SDS011;15682;56.742;38.866;2023-02-22T04:27:09;30.0;;;11.3;;
28455;SDS011;15682;56.742;38.866;2023-02-22T04:29:09;34.7;;;11.1;;
28455;SDS011;15682;56.742;38.866;2023-02-22T04:31:08;43.3;;;12.2;;
28455;SDS011;15682;56.742;38.866;2023-02-22T04:33:08;37.8;;;12.1;;
28455;SDS011;15682;56.742;38.866;2023-02-22T04:35:08;36.5;;;12.2;;
28455;SDS011;15682;56.742;38.866;2023-02-22T04:37:07;31.9;;;11.3;;
28455;SDS011;15682;56.742;38.866;2023-02-22T04:39:06;32.9;;;12.1;;
28455;SDS011;15682;56.742;38.866;2023-02-22T04:41:06;66.5;;;22.7;;
28455;SDS011;15682;56.742;38.866;2023-02-22T04:43:05;45.5;;;13.5;;
28455;SDS011;15682;56.742;38.866;2023-02-22T04:45:06;32.4;;;12.1;;
28455;SDS011;15682;56.742;38.866;2023-02-22T04:47:05;38.3;;;16.0;;
28455;SDS011;15682;56.742;38.866;2023-02-22T04:49:04;43.4;;;12.6;;
28455;SDS011;15682;56.742;38.866;2023-02-22T04:51:04;35.5;;;11.0;;
28455;SDS011;15682;56.742;38.866;2023-02-22T04:53:03;36.4;;;11.5;;
28455;SDS011;15682;56.742;38.866;2023-02-22T04:55:03;34.6;;;10.8;;
28455;SDS011;15682;56.742;38.866;2023-02-22T04:57:02;30.6;;;10.8;;
28455;SDS011;15682;56.742;38.866;2023-02-22T04:59:02;32.8;;;10.8;;
28455;SDS011;15682;56.742;38.866;2023-02-22T05:01:01;28.1;;;10.7;;
28455;SDS011;15682;56.742;38.866;2023-02-22T05:03:01;30.5;;;10.2;;
28455;SDS011;15682;56.742;38.866;2023-02-22T05:05:00;33.8;;;11.1;;
28455;SDS011;15682;56.742;38.866;2023-02-22T05:06:59;37.8;;;11.7;;
28455;SDS011;15682;56.742;38.866;2023-02-22T05:08:59;30.6;;;9.5;;
28455;SDS011;15682;56.742;38.866;2023-02-22T05:10:58;37.3;;;10.7;;
28455;SDS011;15682;56.742;38.866;2023-02-22T05:12:58;30.2;;;9.9;;
28455;SDS011;15682;56.742;38.866;2023-02-22T05:14:57;28.9;;;10.1;;
28455;SDS011;15682;56.742;38.866;2023-02-22T05:16:57;34.9;;;10.2;;
28455;SDS011;15682;56.742;38.866;2023-02-22T05:18:56;27.9;;;9.6;;
28455;SDS011;15682;56.742;38.866;2023-02-22T05:20:56;28.7;;;10.0;;
28455;SDS011;15682;56.742;38.866;2023-02-22T05:22:56;28.9;;;9.6;;
28455;SDS011;15682;56.742;38.866;2023-02-22T05:24:55;27.8;;;10.4;;
28455;SDS011;15682;56.742;38.866;2023-02-22T05:26:54;29.8;;;10.7;;
28455;SDS011;15682;56.742;38.866;2023-02-22T05:28:54;29.8;;;10.2;;
28455;SDS011;15682;56.742;38.866;2023-02-22T05:30:53;28.7;;;10.3;;
28455;SDS011;15682;56.742;38.866;2023-02-22T05:32:53;30.4;;;9.9;;
28455;SDS011;15682;56.742;38.866;2023-02-22T05:34:52;31.5;;;10.0;;
28455;SDS011;15682;56.742;38.866;2023-02-22T05:36:52;33.1;;;10.2;;
28455;SDS011;15682;56.742;38.866;2023-02-22T05:38:51;32.1;;;10.5;;
28455;SDS011;15682;56.742;38.866;2023-02-22T05:40:51;30.4;;;10.9;;
28455;SDS011;15682;56.742;38.866;2023-02-22T05:42:51;33.1;;;10.3;;
28455;SDS011;15682;56.742;38.866;2023-02-22T05:44:50;24.1;;;9.4;;
28455;SDS011;15682;56.742;38.866;2023-02-22T05:46:49;29.0;;;10.9;;
28455;SDS011;15682;56.742;38.866;2023-02-22T05:48:49;32.5;;;10.8;;
28455;SDS011;15682;56.742;38.866;2023-02-22T05:50:48;31.8;;;11.0;;
28455;SDS011;15682;56.742;38.866;2023-02-22T05:52:48;32.7;;;10.4;;
28455;SDS011;15682;56.742;38.866;2023-02-22T05:54:47;28.8;;;9.9;;
28455;SDS011;15682;56.742;38.866;2023-02-22T05:56:47;34.7;;;10.7;;
28455;SDS011;15682;56.742;38.866;2023-02-22T05:58:46;31.3;;;10.7;;
28455;SDS011;15682;56.742;38.866;2023-02-22T06:00:46;25.9;;;10.0;;
28455;SDS011;15682;56.742;38.866;2023-02-22T06:02:46;32.4;;;9.9;;
28455;SDS011;15682;56.742;38.866;2023-02-22T06:04:45;31.0;;;11.5;;
28455;SDS011;15682;56.742;38.866;2023-02-22T06:06:45;30.3;;;11.0;;
28455;SDS011;15682;56.742;38.866;2023-02-22T06:08:44;32.7;;;11.4;;
28455;SDS011;15682;56.742;38.866;2023-02-22T06:10:44;31.9;;;11.0;;
28455;SDS011;15682;56.742;38.866;2023-02-22T06:12:43;28.0;;;11.0;;
28455;SDS011;15682;56.742;38.866;2023-02-22T06:14:43;31.3;;;10.4;;
28455;SDS011;15682;56.742;38.866;2023-02-22T06:16:42;31.4;;;11.5;;
28455;SDS011;15682;56.742;38.866;2023-02-22T06:18:42;33.3;;;10.2;;
28455;SDS011;15682;56.742;38.866;2023-02-22T06:20:41;32.2;;;11.1;;
28455;SDS011;15682;56.742;38.866;2023-02-22T06:22:41;27.1;;;10.9;;
28455;SDS011;15682;56.742;38.866;2023-02-22T06:24:41;29.3;;;10.8;;
28455;SDS011;15682;56.742;38.866;2023-02-22T06:26:40;28.6;;;11.0;;
28455;SDS011;15682;56.742;38.866;2023-02-22T06:28:40;33.0;;;12.1;;
28455;SDS011;15682;56.742;38.866;2023-02-22T06:30:39;32.0;;;11.9;;
28455;SDS011;15682;56.742;38.866;2023-02-22T06:32:39;36.8;;;11.8;;
28455;SDS011;15682;56.742;38.866;2023-02-22T06:34:38;38.7;;;11.2;;
28455;SDS011;15682;56.742;38.866;2023-02-22T06:36:38;29.8;;;10.4;;
28455;SDS011;15682;56.742;38.866;2023-02-22T06:38:37;37.3;;;11.5;;
28455;SDS011;15682;56.742;38.866;2023-02-22T06:40:37;30.4;;;11.5;;
28455;SDS011;15682;56.742;38.866;2023-02-22T06:42:37;33.5;;;12.4;;
28455;SDS011;15682;56.742;38.866;2023-02-22T06:44:36;30.0;;;11.5;;
28455;SDS011;15682;56.742;38.866;2023-02-22T06:46:36;27.4;;;10.6;;
28455;SDS011;15682;56.742;38.866;2023-02-22T06:48:35;32.7;;;10.8;;
28455;SDS011;15682;56.742;38.866;2023-02-22T06:50:35;34.6;;;11.4;;
28455;SDS011;15682;56.742;38.866;2023-02-22T06:52:34;27.0;;;10.9;;
28455;SDS011;15682;56.742;38.866;2023-02-22T06:54:34;28.8;;;10.6;;
28455;SDS011;15682;56.742;38.866;2023-02-22T06:56:33;25.6;;;10.5;;
28455;SDS011;15682;56.742;38.866;2023-02-22T06:58:33;28.3;;;10.4;;
28455;SDS011;15682;56.742;38.866;2023-02-22T07:00:33;33.6;;;10.9;;
28455;SDS011;15682;56.742;38.866;2023-02-22T07:02:32;28.2;;;10.5;;
28455;SDS011;15682;56.742;38.866;2023-02-22T07:04:32;34.5;;;11.3;;
28455;SDS011;15682;56.742;38.866;2023-02-22T07:06:31;34.1;;;11.5;;
28455;SDS011;15682;56.742;38.866;2023-02-22T07:08:31;29.5;;;11.4;;
28455;SDS011;15682;56.742;38.866;2023-02-22T07:10:31;31.3;;;11.7;;
28455;SDS011;15682;56.742;38.866;2023-02-22T07:12:30;28.1;;;12.0;;
28455;SDS011;15682;56.742;38.866;2023-02-22T07:14:30;28.6;;;10.8;;
28455;SDS011;15682;56.742;38.866;2023-02-22T07:16:29;34.1;;;11.3;;
28455;SDS011;15682;56.742;38.866;2023-02-22T07:18:29;28.7;;;11.1;;
28455;SDS011;15682;56.742;38.866;2023-02-22T07:20:29;31.1;;;11.5;;
28455;SDS011;15682;56.742;38.866;2023-02-22T07:22:28;30.2;;;11.1;;
28455;SDS011;15682;56.742;38.866;2023-02-22T07:24:28;28.6;;;11.2;;
28455;SDS011;15682;56.742;38.866;2023-02-22T07:26:27;30.1;;;10.7;;
28455;SDS011;15682;56.742;38.866;2023-02-22T07:28:27;29.4;;;10.8;;
28455;SDS011;15682;56.742;38.866;2023-02-22T07:30:27;28.5;;;10.8;;
28455;SDS011;15682;56.742;38.866;2023-02-22T07:32:26;34.9;;;12.2;;
28455;SDS011;15682;56.742;38.866;2023-02-22T07:34:26;28.3;;;11.6;;
28455;SDS011;15682;56.742;38.866;2023-02-22T07:36:25;28.1;;;11.1;;
28455;SDS011;15682;56.742;38.866;2023-02-22T07:38:25;28.2;;;10.7;;
28455;SDS011;15682;56.742;38.866;2023-02-22T07:40:25;29.1;;;11.6;;
28455;SDS011;15682;56.742;38.866;2023-02-22T07:42:24;27.9;;;11.5;;
28455;SDS011;15682;56.742;38.866;2023-02-22T07:44:24;28.7;;;11.0;;
28455;SDS011;15682;56.742;38.866;2023-02-22T07:46:23;36.1;;;12.5;;
28455;SDS011;15682;56.742;38.866;2023-02-22T07:48:25;40.7;;;13.1;;
28455;SDS011;15682;56.742;38.866;2023-02-22T07:50:23;35.5;;;13.2;;
28455;SDS011;15682;56.742;38.866;2023-02-22T07:52:22;33.4;;;12.0;;
28455;SDS011;15682;56.742;38.866;2023-02-22T07:54:22;29.9;;;11.5;;
28455;SDS011;15682;56.742;38.866;2023-02-22T07:56:21;32.4;;;12.1;;
28455;SDS011;15682;56.742;38.866;2023-02-22T07:58:22;33.9;;;12.6;;
28455;SDS011;15682;56.742;38.866;2023-02-22T08:00:22;31.4;;;10.9;;
28455;SDS011;15682;56.742;38.866;2023-02-22T08:02:20;29.6;;;10.9;;
28455;SDS011;15682;56.742;38.866;2023-02-22T08:04:20;31.3;;;12.6;;
28455;SDS011;15682;56.742;38.866;2023-02-22T08:06:19;29.6;;;11.1;;
28455;SDS011;15682;56.742;38.866;2023-02-22T08:08:19;28.1;;;11.0;;
28455;SDS011;15682;56.742;38.866;2023-02-22T08:10:19;33.4;;;13.2;;
28455;SDS011;15682;56.742;38.866;2023-02-22T08:12:18;32.5;;;11.4;;
28455;SDS011;15682;56.742;38.866;2023-02-22T08:14:18;30.6;;;11.3;;
28455;SDS011;15682;56.742;38.866;2023-02-22T08:16:17;30.8;;;11.2;;
28455;SDS011;15682;56.742;38.866;2023-02-22T08:18:17;28.6;;;11.6;;
28455;SDS011;15682;56.742;38.866;2023-02-22T08:20:17;31.2;;;12.0;;
28455;SDS011;15682;56.742;38.866;2023-02-22T08:22:16;33.7;;;12.2;;
28455;SDS011;15682;56.742;38.866;2023-02-22T08:24:16;32.1;;;12.2;;
28455;SDS011;15682;56.742;38.866;2023-02-22T08:26:16;33.0;;;12.7;;
28455;SDS011;15682;56.742;38.866;2023-02-22T08:28:16;32.0;;;11.7;;
28455;SDS011;15682;56.742;38.866;2023-02-22T08:30:16;29.5;;;11.8;;
28455;SDS011;15682;56.742;38.866;2023-02-22T08:32:14;28.7;;;11.8;;
28455;SDS011;15682;56.742;38.866;2023-02-22T08:34:14;30.8;;;12.0;;
28455;SDS011;15682;56.742;38.866;2023-02-22T08:36:14;27.4;;;11.5;;
28455;SDS011;15682;56.742;38.866;2023-02-22T08:38:15;31.9;;;11.6;;
28455;SDS011;15682;56.742;38.866;2023-02-22T08:40:14;25.8;;;10.7;;
28455;SDS011;15682;56.742;38.866;2023-02-22T08:42:13;28.7;;;11.4;;
28455;SDS011;15682;56.742;38.866;2023-02-22T08:44:12;29.4;;;11.5;;
28455;SDS011;15682;56.742;38.866;2023-02-22T08:46:12;29.0;;;11.0;;
28455;SDS011;15682;56.742;38.866;2023-02-22T08:48:12;30.2;;;11.0;;
28455;SDS011;15682;56.742;38.866;2023-02-22T08:50:15;26.4;;;10.3;;
28455;SDS011;15682;56.742;38.866;2023-02-22T08:52:11;26.7;;;10.8;;
28455;SDS011;15682;56.742;38.866;2023-02-22T08:54:11;25.5;;;10.9;;
28455;SDS011;15682;56.742;38.866;2023-02-22T08:56:10;28.3;;;10.8;;
28455;SDS011;15682;56.742;38.866;2023-02-22T08:58:10;35.5;;;11.0;;
28455;SDS011;15682;56.742;38.866;2023-02-22T09:00:10;28.5;;;10.8;;
28455;SDS011;15682;56.742;38.866;2023-02-22T09:02:12;26.8;;;11.3;;
28455;SDS011;15682;56.742;38.866;2023-02-22T09:04:09;28.3;;;11.0;;
28455;SDS011;15682;56.742;38.866;2023-02-22T09:06:09;29.0;;;11.0;;
28455;SDS011;15682;56.742;38.866;2023-02-22T09:08:08;29.6;;;10.8;;
28455;SDS011;15682;56.742;38.866;2023-02-22T09:10:09;28.3;;;10.9;;
28455;SDS011;15682;56.742;38.866;2023-02-22T09:12:08;30.2;;;11.3;;
28455;SDS011;15682;56.742;38.866;2023-02-22T09:14:07;46.5;;;12.3;;
28455;SDS011;15682;56.742;38.866;2023-02-22T09:16:07;27.0;;;11.1;;
28455;SDS011;15682;56.742;38.866;2023-02-22T09:18:07;42.0;;;11.3;;
28455;SDS011;15682;56.742;38.866;2023-02-22T09:20:07;29.7;;;11.6;;
28455;SDS011;15682;56.742;38.866;2023-02-22T09:22:06;26.4;;;10.8;;
28455;SDS011;15682;56.742;38.866;2023-02-22T09:24:06;28.5;;;11.0;;
28455;SDS011;15682;56.742;38.866;2023-02-22T09:26:06;29.6;;;11.0;;
28455;SDS011;15682;56.742;38.866;2023-02-22T09:28:05;28.7;;;11.0;;
28455;SDS011;15682;56.742;38.866;2023-02-22T09:30:05;29.3;;;11.1;;
28455;SDS011;15682;56.742;38.866;2023-02-22T09:32:04;25.0;;;10.6;;
28455;SDS011;15682;56.742;38.866;2023-02-22T09:34:04;30.9;;;10.9;;
28455;SDS011;15682;56.742;38.866;2023-02-22T09:36:04;33.9;;;11.4;;
28455;SDS011;15682;56.742;38.866;2023-02-22T09:38:03;25.7;;;10.8;;
28455;SDS011;15682;56.742;38.866;2023-02-22T09:40:03;27.2;;;10.4;;
28455;SDS011;15682;56.742;38.866;2023-02-22T09:42:04;25.9;;;10.2;;
28455;SDS011;15682;56.742;38.866;2023-02-22T09:44:06;26.9;;;10.0;;
28455;SDS011;15682;56.742;38.866;2023-02-22T09:46:06;32.5;;;10.9;;
28455;SDS011;15682;56.742;38.866;2023-02-22T09:48:02;26.7;;;10.7;;
28455;SDS011;15682;56.742;38.866;2023-02-22T09:50:02;26.0;;;9.7;;
28455;SDS011;15682;56.742;38.866;2023-02-22T09:52:02;23.6;;;9.9;;
28455;SDS011;15682;56.742;38.866;2023-02-22T09:54:01;24.9;;;10.0;;
28455;SDS011;15682;56.742;38.866;2023-02-22T09:56:03;26.9;;;10.9;;
28455;SDS011;15682;56.742;38.866;2023-02-22T09:58:01;27.7;;;10.1;;
28455;SDS011;15682;56.742;38.866;2023-02-22T10:00:02;22.4;;;9.8;;
28455;SDS011;15682;56.742;38.866;2023-02-22T10:02:01;23.7;;;10.6;;
28455;SDS011;15682;56.742;38.866;2023-02-22T10:04:00;28.9;;;11.1;;
28455;SDS011;15682;56.742;38.866;2023-02-22T10:05:59;24.9;;;9.8;;
28455;SDS011;15682;56.742;38.866;2023-02-22T10:07:59;26.0;;;10.9;;
28455;SDS011;15682;56.742;38.866;2023-02-22T10:09:58;23.7;;;9.3;;
28455;SDS011;15682;56.742;38.866;2023-02-22T10:11:58;29.2;;;10.8;;
28455;SDS011;15682;56.742;38.866;2023-02-22T10:13:59;28.6;;;10.7;;
28455;SDS011;15682;56.742;38.866;2023-02-22T10:15:58;25.1;;;10.2;;
28455;SDS011;15682;56.742;38.866;2023-02-22T10:17:59;23.7;;;10.2;;
28455;SDS011;15682;56.742;38.866;2023-02-22T10:20:03;27.4;;;10.4;;
28455;SDS011;15682;56.742;38.866;2023-02-22T10:22:00;21.5;;;9.7;;
28455;SDS011;15682;56.742;38.866;2023-02-22T10:23:57;24.4;;;9.7;;
28455;SDS011;15682;56.742;38.866;2023-02-22T10:25:57;25.8;;;10.5;;
28455;SDS011;15682;56.742;38.866;2023-02-22T10:27:56;25.9;;;9.6;;
28455;SDS011;15682;56.742;38.866;2023-02-22T10:29:56;26.2;;;10.4;;
28455;SDS011;15682;56.742;38.866;2023-02-22T10:31:55;31.8;;;11.3;;
28455;SDS011;15682;56.742;38.866;2023-02-22T10:33:56;24.4;;;10.4;;
28455;SDS011;15682;56.742;38.866;2023-02-22T10:35:54;23.0;;;10.1;;
28455;SDS011;15682;56.742;38.866;2023-02-22T10:37:54;25.2;;;10.5;;
28455;SDS011;15682;56.742;38.866;2023-02-22T10:39:54;29.7;;;10.0;;
28455;SDS011;15682;56.742;38.866;2023-02-22T10:41:54;26.6;;;9.9;;
28455;SDS011;15682;56.742;38.866;2023-02-22T10:43:52;25.8;;;10.5;;
28455;SDS011;15682;56.742;38.866;2023-02-22T10:45:52;27.4;;;9.9;;
28455;SDS011;15682;56.742;38.866;2023-02-22T10:47:53;21.7;;;9.7;;
28455;SDS011;15682;56.742;38.866;2023-02-22T10:49:52;24.3;;;10.2;;
28455;SDS011;15682;56.742;38.866;2023-02-22T10:51:55;23.0;;;9.4;;
28455;SDS011;15682;56.742;38.866;2023-02-22T10:53:54;25.5;;;10.6;;
28455;SDS011;15682;56.742;38.866;2023-02-22T10:57:50;28.3;;;11.7;;
28455;SDS011;15682;56.742;38.866;2023-02-22T10:59:50;28.8;;;11.3;;
28455;SDS011;15682;56.742;38.866;2023-02-22T11:01:49;23.9;;;10.6;;
28455;SDS011;15682;56.742;38.866;2023-02-22T11:03:58;26.2;;;10.9;;
28455;SDS011;15682;56.742;38.866;2023-02-22T11:05:49;22.2;;;10.1;;
28455;SDS011;15682;56.742;38.866;2023-02-22T11:07:48;26.5;;;9.9;;
28455;SDS011;15682;56.742;38.866;2023-02-22T11:09:49;24.3;;;9.7;;
28455;SDS011;15682;56.742;38.866;2023-02-22T11:11:48;22.8;;;9.3;;
28455;SDS011;15682;56.742;38.866;2023-02-22T11:13:49;26.6;;;10.3;;
28455;SDS011;15682;56.742;38.866;2023-02-22T11:15:47;25.5;;;10.2;;
28455;SDS011;15682;56.742;38.866;2023-02-22T11:17:47;23.7;;;9.5;;
28455;SDS011;15682;56.742;38.866;2023-02-22T11:19:47;22.2;;;9.2;;
28455;SDS011;15682;56.742;38.866;2023-02-22T11:21:47;27.6;;;9.7;;
28455;SDS011;15682;56.742;38.866;2023-02-22T11:23:46;23.5;;;9.9;;
28455;SDS011;15682;56.742;38.866;2023-02-22T11:25:46;19.7;;;9.6;;
28455;SDS011;15682;56.742;38.866;2023-02-22T11:27:45;27.7;;;10.3;;
28455;SDS011;15682;56.742;38.866;2023-02-22T11:29:45;24.3;;;9.3;;
28455;SDS011;15682;56.742;38.866;2023-02-22T11:31:45;21.9;;;9.1;;
28455;SDS011;15682;56.742;38.866;2023-02-22T11:33:47;22.7;;;9.3;;
28455;SDS011;15682;56.742;38.866;2023-02-22T11:35:48;23.5;;;9.2;;
28455;SDS011;15682;56.742;38.866;2023-02-22T11:37:44;21.7;;;9.0;;
28455;SDS011;15682;56.742;38.866;2023-02-22T11:39:43;22.1;;;9.4;;
28455;SDS011;15682;56.742;38.866;2023-02-22T11:41:43;20.2;;;9.6;;
28455;SDS011;15682;56.742;38.866;2023-02-22T11:43:43;23.7;;;10.2;;
28455;SDS011;15682;56.742;38.866;2023-02-22T11:45:54;22.0;;;9.3;;
28455;SDS011;15682;56.742;38.866;2023-02-22T11:47:46;23.8;;;9.4;;
28455;SDS011;15682;56.742;38.866;2023-02-22T11:49:42;23.5;;;9.1;;
28455;SDS011;15682;56.742;38.866;2023-02-22T11:51:44;20.4;;;8.8;;
28455;SDS011;15682;56.742;38.866;2023-02-22T11:53:46;21.9;;;9.4;;